createdAt,value
2023-06-19T00:02:02.079Z,7.40
2023-06-19T00:04:29.799Z,7.17
2023-06-19T00:06:57.431Z,6.93
2023-06-19T00:09:25.022Z,7.60
2023-06-19T00:11:52.551Z,9.30
2023-06-19T00:14:20.376Z,6.90
2023-06-19T00:16:47.999Z,6.90
2023-06-19T00:19:15.641Z,8.47
2023-06-19T00:21:43.162Z,6.57
2023-06-19T00:24:11.339Z,7.00
2023-06-19T00:26:38.906Z,7.13
2023-06-19T00:29:06.527Z,6.60
2023-06-19T00:31:34.073Z,6.83
2023-06-19T00:34:01.662Z,8.50
2023-06-19T00:36:29.243Z,7.53
2023-06-19T00:38:56.848Z,8.00
2023-06-19T00:41:25.491Z,7.10
2023-06-19T00:43:53.117Z,7.27
2023-06-19T00:46:20.807Z,6.57
2023-06-19T00:48:48.595Z,7.23
2023-06-19T00:51:16.169Z,7.30
2023-06-19T00:53:43.805Z,7.10
2023-06-19T00:56:11.435Z,6.47
2023-06-19T00:58:39.179Z,6.87
2023-06-19T01:01:09.352Z,6.93
2023-06-19T01:03:38.346Z,6.90
2023-06-19T01:06:09.292Z,6.10
2023-06-19T01:08:51.043Z,6.47
2023-06-19T01:11:26.590Z,7.20
2023-06-19T01:14:01.352Z,8.53
2023-06-19T01:16:30.117Z,7.53
2023-06-19T01:18:57.782Z,6.70
2023-06-19T01:21:25.440Z,6.73
2023-06-19T01:23:53.073Z,7.20
2023-06-19T01:26:21.877Z,9.50
2023-06-19T01:28:49.438Z,7.83
2023-06-19T01:31:19.493Z,7.53
2023-06-19T01:33:47.831Z,6.43
2023-06-19T01:36:15.610Z,7.43
2023-06-19T01:38:45.107Z,7.63
2023-06-19T01:41:13.103Z,8.20
2023-06-19T01:43:40.887Z,8.83
2023-06-19T01:46:08.549Z,6.63
2023-06-19T01:48:40.150Z,10.20
2023-06-19T01:51:07.988Z,6.47
2023-06-19T01:53:35.679Z,6.43
2023-06-19T01:56:03.550Z,6.33
2023-06-19T01:58:31.074Z,7.37
2023-06-19T02:00:58.683Z,6.33
2023-06-19T02:03:26.303Z,7.00
2023-06-19T02:05:54.051Z,6.80
2023-06-19T02:08:21.603Z,6.37
2023-06-19T02:10:49.283Z,6.77
2023-06-19T02:13:16.844Z,6.80
2023-06-19T02:15:44.550Z,8.23
2023-06-19T02:18:12.112Z,6.97
2023-06-19T02:20:39.731Z,6.13
2023-06-19T02:23:07.249Z,7.07
2023-06-19T02:25:34.876Z,7.03
2023-06-19T02:28:02.588Z,7.17
2023-06-19T02:30:30.248Z,6.70
2023-06-19T02:32:57.835Z,6.23
2023-06-19T02:35:25.545Z,10.50
2023-06-19T02:37:53.071Z,5.90
2023-06-19T02:40:20.859Z,5.30
2023-06-19T02:42:48.559Z,5.30
2023-06-19T02:45:18.310Z,5.10
2023-06-19T02:47:45.881Z,4.30
2023-06-19T02:50:13.667Z,4.40
2023-06-19T02:52:41.307Z,4.67
2023-06-19T02:55:09.116Z,5.30
2023-06-19T02:57:36.765Z,5.37
2023-06-19T03:00:04.920Z,5.07
2023-06-19T03:02:32.479Z,4.73
2023-06-19T03:05:00.273Z,5.47
2023-06-19T03:07:27.800Z,4.30
2023-06-19T03:09:55.519Z,4.63
2023-06-19T03:12:23.118Z,5.10
2023-06-19T03:14:50.813Z,4.47
2023-06-19T03:17:18.406Z,4.53
2023-06-19T03:19:46.000Z,4.20
2023-06-19T03:22:13.575Z,5.03
2023-06-19T03:24:41.338Z,4.40
2023-06-19T03:27:08.947Z,4.53
2023-06-19T03:29:36.586Z,6.13
2023-06-19T03:32:04.202Z,4.80
2023-06-19T03:34:31.821Z,4.83
2023-06-19T03:36:59.385Z,4.07
2023-06-19T03:39:26.962Z,4.70
2023-06-19T03:41:54.494Z,4.57
2023-06-19T03:44:22.096Z,4.67
2023-06-19T03:46:49.697Z,3.17
2023-06-19T03:49:17.296Z,5.30
2023-06-19T03:51:44.864Z,3.60
2023-06-19T03:54:12.468Z,3.73
2023-06-19T03:56:40.151Z,3.70
2023-06-19T03:59:07.789Z,5.60
2023-06-19T04:01:35.411Z,5.57
2023-06-19T04:04:03.041Z,5.33
2023-06-19T04:06:30.576Z,3.87
2023-06-19T04:08:58.209Z,4.07
2023-06-19T04:11:25.836Z,4.07
2023-06-19T04:13:53.405Z,4.70
2023-06-19T04:16:21.074Z,5.53
2023-06-19T04:18:48.753Z,3.43
2023-06-19T04:21:16.355Z,4.10
2023-06-19T04:23:43.928Z,4.33
2023-06-19T04:26:11.516Z,4.67
2023-06-19T04:28:39.089Z,4.40
2023-06-19T04:31:06.698Z,4.10
2023-06-19T04:33:34.434Z,3.93
2023-06-19T04:36:02.016Z,4.17
2023-06-19T04:38:29.698Z,5.00
2023-06-19T04:40:57.243Z,4.67
2023-06-19T04:43:24.908Z,3.97
2023-06-19T04:45:52.508Z,3.83
2023-06-19T04:48:20.174Z,4.27
2023-06-19T04:50:47.788Z,3.80
2023-06-19T04:53:15.392Z,5.63
2023-06-19T04:55:42.937Z,4.70
2023-06-19T04:58:10.582Z,4.53
2023-06-19T05:00:38.164Z,3.60
2023-06-19T05:03:08.127Z,4.83
2023-06-19T05:05:35.777Z,3.35
2023-06-19T05:08:03.342Z,5.97
2023-06-19T05:10:31.020Z,4.50
2023-06-19T05:12:58.545Z,6.27
2023-06-19T05:15:26.212Z,3.03
2023-06-19T05:17:53.798Z,3.50
2023-06-19T05:20:21.612Z,4.13
2023-06-19T05:22:49.259Z,12.47
2023-06-19T05:25:17.091Z,18.03
2023-06-19T05:27:44.746Z,4.53
2023-06-19T05:30:12.662Z,6.03
2023-06-19T05:32:40.257Z,2.97
2023-06-19T05:35:08.177Z,3.37
2023-06-19T05:37:35.865Z,4.87
2023-06-19T05:40:03.499Z,5.33
2023-06-19T05:42:31.133Z,5.00
2023-06-19T05:44:58.756Z,3.67
2023-06-19T05:47:26.326Z,4.37
2023-06-19T05:49:53.966Z,3.10
2023-06-19T05:52:21.486Z,3.00
2023-06-19T05:54:49.434Z,3.13
2023-06-19T05:57:17.216Z,5.27
2023-06-19T05:59:44.886Z,4.20
2023-06-19T06:02:12.410Z,4.07
2023-06-19T06:04:40.144Z,2.60
2023-06-19T06:07:07.763Z,5.43
2023-06-19T06:09:35.350Z,3.57
2023-06-19T06:12:02.927Z,3.37
2023-06-19T06:14:30.589Z,3.60
2023-06-19T06:16:58.290Z,2.70
2023-06-19T06:19:25.929Z,5.37
2023-06-19T06:21:53.638Z,4.83
2023-06-19T06:24:21.345Z,3.40
2023-06-19T06:26:48.995Z,4.07
2023-06-19T06:29:16.794Z,2.60
2023-06-19T06:31:47.800Z,3.40
2023-06-19T06:34:15.463Z,3.13
2023-06-19T06:36:52.968Z,2.87
2023-06-19T06:39:29.374Z,2.30
2023-06-19T06:41:56.957Z,2.57
2023-06-19T06:44:24.614Z,4.10
2023-06-19T06:46:52.257Z,4.37
2023-06-19T06:49:19.901Z,3.30
2023-06-19T06:51:47.475Z,4.90
2023-06-19T06:54:15.177Z,3.50
2023-06-19T06:56:43.110Z,3.97
2023-06-19T06:59:10.722Z,4.33
2023-06-19T07:01:38.325Z,3.57
2023-06-19T07:04:06.058Z,3.90
2023-06-19T07:06:33.623Z,6.10
2023-06-19T07:09:01.494Z,2.77
2023-06-19T07:11:31.766Z,3.77
2023-06-19T07:13:59.359Z,3.83
2023-06-19T07:16:27.019Z,3.43
2023-06-19T07:18:54.600Z,3.97
2023-06-19T07:21:22.254Z,3.40
2023-06-19T07:23:50.009Z,2.93
2023-06-19T07:26:17.656Z,2.60
2023-06-19T07:28:45.341Z,2.63
2023-06-19T07:31:13.250Z,6.00
2023-06-19T07:33:41.351Z,6.30
2023-06-19T07:36:08.936Z,7.50
2023-06-19T07:38:36.570Z,3.47
2023-06-19T07:41:04.190Z,4.93
2023-06-19T07:43:31.770Z,3.20
2023-06-19T07:45:59.324Z,4.57
2023-06-19T07:48:27.238Z,4.07
2023-06-19T07:50:55.365Z,5.27
2023-06-19T07:53:23.025Z,3.73
2023-06-19T07:55:50.786Z,3.30
2023-06-19T07:58:18.550Z,2.83
2023-06-19T08:00:46.187Z,4.50
2023-06-19T08:03:13.961Z,5.50
2023-06-19T08:05:41.571Z,4.50
2023-06-19T08:08:09.137Z,3.17
2023-06-19T08:10:36.683Z,5.00
2023-06-19T08:13:04.364Z,3.97
2023-06-19T08:15:31.900Z,3.57
2023-06-19T08:17:59.735Z,2.70
2023-06-19T08:20:27.623Z,4.83
2023-06-19T08:22:55.509Z,3.70
2023-06-19T08:25:23.158Z,4.20
2023-06-19T08:27:50.724Z,2.80
2023-06-19T08:30:18.447Z,4.83
2023-06-19T08:32:46.374Z,5.70
2023-06-19T08:35:13.990Z,5.33
2023-06-19T08:37:41.625Z,3.80
2023-06-19T08:40:09.430Z,3.50
2023-06-19T08:42:37.584Z,7.17
2023-06-19T08:45:05.260Z,3.07
2023-06-19T08:47:35.943Z,7.27
2023-06-19T08:50:03.715Z,4.93
2023-06-19T08:52:31.316Z,4.10
2023-06-19T08:54:59.002Z,4.57
2023-06-19T08:57:36.522Z,4.07
2023-06-19T09:00:04.513Z,4.13
2023-06-19T09:02:38.762Z,4.03
2023-06-19T09:05:13.023Z,5.73
2023-06-19T09:07:40.767Z,4.23
2023-06-19T09:10:18.634Z,5.07
2023-06-19T09:12:57.439Z,4.23
2023-06-19T09:15:25.002Z,5.53
2023-06-19T09:18:02.541Z,7.50
2023-06-19T09:20:30.298Z,5.27
2023-06-19T09:22:58.320Z,3.73
2023-06-19T09:25:26.181Z,3.80
2023-06-19T09:27:54.061Z,6.20
2023-06-19T09:30:24.140Z,4.87
2023-06-19T09:32:52.127Z,5.67
2023-06-19T09:35:19.822Z,3.50
2023-06-19T09:37:47.621Z,4.77
2023-06-19T09:40:21.225Z,3.20
2023-06-19T09:42:49.542Z,6.57
2023-06-19T09:45:19.692Z,5.10
2023-06-19T09:47:50.547Z,4.47
2023-06-19T09:50:19.061Z,5.57
2023-06-19T09:52:46.728Z,3.50
2023-06-19T09:55:14.799Z,6.37
2023-06-19T09:57:43.136Z,3.87
2023-06-19T10:00:11.398Z,4.93
2023-06-19T10:02:39.270Z,4.50
2023-06-19T10:05:07.564Z,4.10
2023-06-19T10:07:36.360Z,5.40
2023-06-19T10:10:04.092Z,4.00
2023-06-19T10:12:38.853Z,4.10
2023-06-19T10:15:22.918Z,5.93
2023-06-19T10:17:52.248Z,4.83
2023-06-19T10:20:31.409Z,5.93
2023-06-19T10:23:09.401Z,4.77
2023-06-19T10:25:38.691Z,5.87
2023-06-19T10:28:06.771Z,7.70
2023-06-19T10:30:34.632Z,4.30
2023-06-19T10:33:02.553Z,4.90
2023-06-19T10:35:30.369Z,4.47
2023-06-19T10:37:58.057Z,4.87
2023-06-19T10:40:28.192Z,5.93
2023-06-19T10:42:56.057Z,7.13
2023-06-19T10:45:25.699Z,4.13
2023-06-19T10:47:53.524Z,5.20
2023-06-19T10:50:21.837Z,5.10
2023-06-19T10:52:49.785Z,5.53
2023-06-19T10:55:17.416Z,4.87
2023-06-19T10:57:50.532Z,6.07
2023-06-19T11:00:44.719Z,5.43
2023-06-19T11:03:12.490Z,6.77
2023-06-19T11:05:44.845Z,5.57
2023-06-19T11:08:12.507Z,8.00
2023-06-19T11:10:40.071Z,4.67
2023-06-19T11:13:07.666Z,6.20
2023-06-19T11:15:36.033Z,7.53
2023-06-19T11:18:04.285Z,6.13
2023-06-19T11:20:31.955Z,4.90
2023-06-19T11:23:00.641Z,7.20
2023-06-19T11:25:41.044Z,6.37
2023-06-19T11:28:15.757Z,6.23
2023-06-19T11:30:43.598Z,5.07
2023-06-19T11:33:21.200Z,5.03
2023-06-19T11:35:49.245Z,5.57
2023-06-19T11:38:24.257Z,5.63
2023-06-19T11:40:52.457Z,5.23
2023-06-19T11:43:26.765Z,6.73
2023-06-19T11:45:54.648Z,6.87
2023-06-19T11:48:25.673Z,5.40
2023-06-19T11:50:54.112Z,5.43
2023-06-19T11:53:25.359Z,6.73
2023-06-19T11:55:53.330Z,7.40
2023-06-19T11:58:20.997Z,6.15
2023-06-19T12:00:48.896Z,7.68
2023-06-19T12:03:16.988Z,7.05
2023-06-19T12:05:45.486Z,6.40
2023-06-19T12:08:13.790Z,4.90
2023-06-19T12:10:41.456Z,8.47
2023-06-19T12:13:08.985Z,5.00
2023-06-19T12:15:38.034Z,5.10
2023-06-19T12:18:05.977Z,4.70
2023-06-19T12:20:33.711Z,5.97
2023-06-19T12:23:01.407Z,5.65
2023-06-19T12:25:29.100Z,4.97
2023-06-19T12:27:56.715Z,5.47
2023-06-19T12:30:24.592Z,5.10
2023-06-19T12:32:52.469Z,6.33
2023-06-19T12:35:20.128Z,8.93
2023-06-19T12:37:47.736Z,7.22
2023-06-19T12:40:15.977Z,5.68
2023-06-19T12:42:43.513Z,6.10
2023-06-19T12:45:11.577Z,6.33
2023-06-19T12:47:39.409Z,5.37
2023-06-19T12:50:07.260Z,9.55
2023-06-19T12:52:34.858Z,5.33
2023-06-19T12:55:02.515Z,5.90
2023-06-19T12:57:30.087Z,5.38
2023-06-19T12:59:57.709Z,6.13
2023-06-19T13:02:25.583Z,5.57
2023-06-19T13:04:53.653Z,6.67
2023-06-19T13:07:21.243Z,5.87
2023-06-19T13:09:48.820Z,5.80
2023-06-19T13:12:16.401Z,5.50
2023-06-19T13:14:44.048Z,5.53
2023-06-19T13:17:11.803Z,6.50
2023-06-19T13:19:39.511Z,6.17
2023-06-19T13:22:07.204Z,5.37
2023-06-19T13:24:35.764Z,6.10
2023-06-19T13:27:03.380Z,5.53
2023-06-19T13:29:31.040Z,5.93
2023-06-19T13:31:58.593Z,7.50
2023-06-19T13:34:26.222Z,4.97
2023-06-19T13:36:53.870Z,5.03
2023-06-19T13:39:21.502Z,5.77
2023-06-19T13:41:49.466Z,6.93
2023-06-19T13:44:17.180Z,4.57
2023-06-19T13:46:45.098Z,5.67
2023-06-19T13:49:12.835Z,4.90
2023-06-19T13:51:40.468Z,4.67
2023-06-19T13:54:08.147Z,4.60
2023-06-19T13:56:35.847Z,4.17
2023-06-19T13:59:03.579Z,4.60
2023-06-19T14:01:31.214Z,5.57
2023-06-19T14:03:59.066Z,4.95
2023-06-19T14:06:26.988Z,7.70
2023-06-19T14:08:54.687Z,9.00
2023-06-19T14:11:22.290Z,4.55
2023-06-19T14:13:49.952Z,5.50
2023-06-19T14:16:17.638Z,4.57
2023-06-19T14:18:45.318Z,4.10
2023-06-19T14:21:12.887Z,4.80
2023-06-19T14:23:40.589Z,5.10
2023-06-19T14:26:08.239Z,5.87
2023-06-19T14:28:35.846Z,4.50
2023-06-19T14:31:03.452Z,4.33
2023-06-19T14:33:31.044Z,6.63
2023-06-19T14:35:58.574Z,4.57
2023-06-19T14:38:26.310Z,4.93
2023-06-19T14:40:53.841Z,4.20
2023-06-19T14:43:21.433Z,5.47
2023-06-19T14:45:49.038Z,5.73
2023-06-19T14:48:16.741Z,5.27
2023-06-19T14:50:44.347Z,8.05
2023-06-19T14:53:12.629Z,4.47
2023-06-19T14:55:40.318Z,4.38
2023-06-19T14:58:07.979Z,5.33
2023-06-19T15:00:35.589Z,4.83
2023-06-19T15:03:03.253Z,4.23
2023-06-19T15:05:30.924Z,5.00
2023-06-19T15:07:58.551Z,4.38
2023-06-19T15:10:26.296Z,5.10
2023-06-19T15:12:54.123Z,4.47
2023-06-19T15:15:21.696Z,7.43
2023-06-19T15:17:49.395Z,4.87
2023-06-19T15:20:16.994Z,4.65
2023-06-19T15:22:44.657Z,4.65
2023-06-19T15:25:12.281Z,4.30
2023-06-19T15:27:39.909Z,7.82
2023-06-19T15:30:07.835Z,5.50
2023-06-19T15:32:35.528Z,6.32
2023-06-19T15:35:03.152Z,4.68
2023-06-19T15:37:30.836Z,4.00
2023-06-19T15:39:58.399Z,5.30
2023-06-19T15:42:26.022Z,5.37
2023-06-19T15:44:53.635Z,6.43
2023-06-19T15:47:21.514Z,4.43
2023-06-19T15:49:49.119Z,4.82
2023-06-19T15:52:16.764Z,6.90
2023-06-19T15:54:44.301Z,4.57
2023-06-19T15:57:14.718Z,5.57
2023-06-19T15:59:42.363Z,4.17
2023-06-19T16:02:10.252Z,4.53
2023-06-19T16:04:38.197Z,6.77
2023-06-19T16:07:05.760Z,4.25
2023-06-19T16:09:42.488Z,4.10
2023-06-19T16:12:18.337Z,5.22
2023-06-19T16:14:45.899Z,5.37
2023-06-19T16:17:13.563Z,4.93
2023-06-19T16:19:41.154Z,5.57
2023-06-19T16:22:08.799Z,7.40
2023-06-19T16:24:36.387Z,6.23
2023-06-19T16:27:04.091Z,4.83
2023-06-19T16:29:31.794Z,4.43
2023-06-19T16:32:09.000Z,4.40
2023-06-19T16:34:38.175Z,4.20
2023-06-19T16:37:08.936Z,4.67
2023-06-19T16:39:36.583Z,5.07
2023-06-19T16:42:04.265Z,3.97
2023-06-19T16:44:31.887Z,4.15
2023-06-19T16:46:59.500Z,5.47
2023-06-19T16:49:27.196Z,4.28
2023-06-19T16:51:54.735Z,5.10
2023-06-19T16:54:22.477Z,5.70
2023-06-19T16:56:50.103Z,5.22
2023-06-19T16:59:17.754Z,4.38
2023-06-19T17:01:45.377Z,6.68
2023-06-19T17:04:13.046Z,5.20
2023-06-19T17:06:40.641Z,5.72
2023-06-19T17:09:08.197Z,5.28
2023-06-19T17:11:35.768Z,5.18
2023-06-19T17:14:03.371Z,3.90
2023-06-19T17:16:31.002Z,5.45
2023-06-19T17:18:58.639Z,4.20
2023-06-19T17:21:26.194Z,6.05
2023-06-19T17:23:53.901Z,5.25
2023-06-19T17:26:21.532Z,9.05
2023-06-19T17:28:52.274Z,4.82
2023-06-19T17:31:20.178Z,7.13
2023-06-19T17:33:47.910Z,4.55
2023-06-19T17:36:15.601Z,7.13
2023-06-19T17:38:43.191Z,7.13
2023-06-19T17:41:10.766Z,4.78
2023-06-19T17:43:38.393Z,4.50
2023-06-19T17:46:06.023Z,7.00
2023-06-19T17:48:33.608Z,6.72
2023-06-19T17:51:01.204Z,4.22
2023-06-19T17:53:28.764Z,7.07
2023-06-19T17:55:56.683Z,6.93
2023-06-19T17:58:24.259Z,4.88
2023-06-19T18:00:51.953Z,6.57
2023-06-19T18:03:19.674Z,4.90
2023-06-19T18:05:47.353Z,6.87
2023-06-19T18:08:14.916Z,4.85
2023-06-19T18:10:42.503Z,5.97
2023-06-19T18:13:10.093Z,7.05
2023-06-19T18:15:37.687Z,7.80
2023-06-19T18:18:05.266Z,6.70
2023-06-19T18:20:33.003Z,5.35
2023-06-19T18:23:00.654Z,5.13
2023-06-19T18:25:28.384Z,7.07
2023-06-19T18:27:55.954Z,5.28
2023-06-19T18:30:24.014Z,5.27
2023-06-19T18:32:51.862Z,6.20
2023-06-19T18:35:19.534Z,6.17
2023-06-19T18:37:47.096Z,7.10
2023-06-19T18:40:14.841Z,5.43
2023-06-19T18:42:42.435Z,8.10
2023-06-19T18:45:10.578Z,5.73
2023-06-19T18:47:38.296Z,5.40
2023-06-19T18:50:06.312Z,5.47
2023-06-19T18:52:33.937Z,6.50
2023-06-19T18:55:01.604Z,6.70
2023-06-19T18:57:29.213Z,5.67
2023-06-19T18:59:57.278Z,6.17
2023-06-19T19:02:25.364Z,5.97
2023-06-19T19:04:53.024Z,9.37
2023-06-19T19:07:20.604Z,5.77
2023-06-19T19:09:48.408Z,6.00
2023-06-19T19:12:16.008Z,6.83
2023-06-19T19:14:43.660Z,6.43
2023-06-19T19:17:11.690Z,5.93
2023-06-19T19:19:39.339Z,4.90
2023-06-19T19:22:07.015Z,5.93
2023-06-19T19:24:35.082Z,6.57
2023-06-19T19:27:02.727Z,6.63
2023-06-19T19:29:30.453Z,8.13
2023-06-19T19:31:59.246Z,6.20
2023-06-19T19:34:26.855Z,6.50
2023-06-19T19:36:54.479Z,5.87
2023-06-19T19:39:22.186Z,8.97
2023-06-19T19:41:49.929Z,7.63
2023-06-19T19:44:17.677Z,9.00
2023-06-19T19:46:45.295Z,7.87
2023-06-19T19:49:12.972Z,7.90
2023-06-19T19:51:40.641Z,9.70
2023-06-19T19:54:08.296Z,7.20
2023-06-19T19:56:36.016Z,6.60
2023-06-19T19:59:03.686Z,5.87
2023-06-19T20:01:31.271Z,9.57
2023-06-19T20:03:59.215Z,8.83
2023-06-19T20:06:27.044Z,7.23
2023-06-19T20:08:54.693Z,7.47
2023-06-19T20:11:22.345Z,6.33
2023-06-19T20:13:50.048Z,8.23
2023-06-19T20:16:17.717Z,7.93
2023-06-19T20:18:45.378Z,7.43
2023-06-19T20:21:12.958Z,6.63
2023-06-19T20:23:40.626Z,8.30
2023-06-19T20:26:08.237Z,6.80
2023-06-19T20:28:35.882Z,11.73
2023-06-19T20:31:05.772Z,5.77
2023-06-19T20:33:33.539Z,6.07
2023-06-19T20:36:01.064Z,9.73
2023-06-19T20:38:29.172Z,8.60
2023-06-19T20:40:56.897Z,13.57
2023-06-19T20:43:24.605Z,10.23
2023-06-19T20:45:52.193Z,8.23
2023-06-19T20:48:19.829Z,8.10
2023-06-19T20:50:47.434Z,8.20
2023-06-19T20:53:15.061Z,7.67
2023-06-19T20:55:42.723Z,7.87
2023-06-19T20:58:11.424Z,8.33
2023-06-19T21:00:39.155Z,7.50
2023-06-19T21:03:08.118Z,10.17
2023-06-19T21:05:37.860Z,6.67
2023-06-19T21:08:05.550Z,7.60
2023-06-19T21:10:33.251Z,8.23
2023-06-19T21:13:14.112Z,7.37
2023-06-19T21:15:48.450Z,10.37
2023-06-19T21:18:16.040Z,7.87
2023-06-19T21:20:43.711Z,9.80
2023-06-19T21:23:11.300Z,6.93
2023-06-19T21:25:39.793Z,7.33
2023-06-19T21:28:07.428Z,9.53
2023-06-19T21:30:36.347Z,9.30
2023-06-19T21:33:03.999Z,8.70
2023-06-19T21:35:31.565Z,8.37
2023-06-19T21:37:59.208Z,6.97
2023-06-19T21:40:26.942Z,7.67
2023-06-19T21:42:54.935Z,12.40
2023-06-19T21:45:22.606Z,9.33
2023-06-19T21:47:51.108Z,7.50
2023-06-19T21:50:18.995Z,7.03
2023-06-19T21:52:46.798Z,9.43
2023-06-19T21:55:14.367Z,12.63
2023-06-19T21:57:54.283Z,10.87
2023-06-19T22:00:26.817Z,8.47
2023-06-19T22:02:54.700Z,12.07
2023-06-19T22:05:22.429Z,8.73
2023-06-19T22:07:50.054Z,10.77
2023-06-19T22:10:17.688Z,11.77
2023-06-19T22:12:45.425Z,8.57
2023-06-19T22:15:13.075Z,8.30
2023-06-19T22:17:40.732Z,9.80
2023-06-19T22:20:08.558Z,7.63
2023-06-19T22:22:36.281Z,10.57
2023-06-19T22:25:04.013Z,11.33
2023-06-19T22:27:31.548Z,10.47
2023-06-19T22:29:59.176Z,11.67
2023-06-19T22:32:26.790Z,9.30
2023-06-19T22:34:54.425Z,8.93
2023-06-19T22:37:22.331Z,7.63
2023-06-19T22:39:50.078Z,10.20
2023-06-19T22:42:17.612Z,9.10
2023-06-19T22:44:45.202Z,11.43
2023-06-19T22:47:12.781Z,15.90
2023-06-19T22:49:40.331Z,9.97
2023-06-19T22:52:08.399Z,9.47
2023-06-19T22:54:36.005Z,11.33
2023-06-19T22:57:03.630Z,12.07
2023-06-19T22:59:31.179Z,10.17
2023-06-19T23:01:58.750Z,11.43
2023-06-19T23:04:26.365Z,9.13
2023-06-19T23:06:53.853Z,11.17
2023-06-19T23:09:22.327Z,10.57
2023-06-19T23:11:49.899Z,12.33
2023-06-19T23:14:17.508Z,11.90
2023-06-19T23:16:45.069Z,12.40
2023-06-19T23:19:12.645Z,10.93
2023-06-19T23:21:40.194Z,11.83
2023-06-19T23:24:07.893Z,10.87
2023-06-19T23:26:35.493Z,9.07
2023-06-19T23:29:03.174Z,9.67
2023-06-19T23:31:30.793Z,12.03
2023-06-19T23:33:58.394Z,10.13
2023-06-19T23:36:26.086Z,11.70
2023-06-19T23:38:54.136Z,10.43
2023-06-19T23:41:22.247Z,10.43
2023-06-19T23:43:50.162Z,12.93
2023-06-19T23:46:17.741Z,13.10
2023-06-19T23:48:45.550Z,12.67
2023-06-19T23:51:13.250Z,10.77
2023-06-19T23:53:40.818Z,9.83
2023-06-19T23:56:08.404Z,11.33
2023-06-19T23:58:36.006Z,11.10
